MST,Max TemperatureF,Mean TemperatureF,Min TemperatureF,Max Dew PointF,MeanDew PointF,Min DewpointF,Max Humidity, Mean Humidity, Min Humidity, Max Sea Level PressureIn, Mean Sea Level PressureIn, Min Sea Level PressureIn, Max VisibilityMiles, Mean VisibilityMiles, Min VisibilityMiles, Max Wind SpeedMPH, Mean Wind SpeedMPH, Max Gust SpeedMPH,PrecipitationIn, CloudCover, Events, WindDirDegrees
2013-2-1,41,31,20,31,27,22,82,73,64,30.22,30.14,30.06,10,10,9,21,12,28,0.00,6,,270
2013-2-2,45,35,25,29,25,22,85,65,45,30.34,30.30,30.24,10,10,10,30,16,38,0.00,0,,282
2013-2-3,54,40,25,28,24,19,88,62,35,30.27,30.05,29.88,10,10,10,21,9,26,0.00,0,,267
2013-2-4,51,37,23,25,22,20,84,58,32,30.01,29.94,29.85,10,10,10,22,8,29,0.00,1,,269
2013-2-5,50,39,27,30,25,22,78,59,39,30.10,29.98,29.83,10,10,9,17,7,21,0.00,2,,242
2013-2-6,47,37,26,32,27,22,92,71,49,30.13,29.94,29.80,10,10,10,16,5,18,0.00,1,,293
2013-2-7,50,37,24,27,21,17,92,60,27,30.23,30.15,30.02,10,10,10,24,7,30,0.00,0,,224
2013-2-8,55,38,21,26,21,18,88,56,24,30.01,29.91,29.81,10,10,10,28,8,35,0.00,0,,172
2013-2-9,28,24,19,25,22,17,96,91,85,29.91,29.75,29.61,10,4,0,15,7,18,T,7,Fog-Snow,11
2013-2-10,32,23,14,28,22,10,100,84,68,30.19,29.82,29.61,10,5,0,26,16,35,0.02,7,Fog-Snow,338
2013-2-11,31,18,4,18,9,-1,88,71,53,30.28,30.20,30.13,10,10,9,21,11,24,0.00,0,,251
2013-2-12,42,24,5,23,15,1,86,66,45,30.20,30.12,30.03,10,10,10,24,13,31,0.00,1,,268
2013-2-13,48,36,23,34,24,16,89,64,38,30.05,29.97,29.87,10,10,10,31,15,39,T,3,,275
2013-2-14,36,26,16,27,19,11,92,65,38,30.45,30.28,30.06,10,10,10,33,15,41,0.00,5,,308
2013-2-15,31,22,13,22,17,9,91,75,58,30.52,30.39,30.25,10,6,0,12,5,14,0.03,6,Fog-Snow,256
2013-2-16,54,40,26,27,24,19,85,60,35,30.22,30.06,29.91,10,10,10,33,14,41,0.00,3,,282
2013-2-17,56,40,24,28,24,20,84,54,24,29.89,29.73,29.57,10,10,6,30,13,39,0.00,0,,272
2013-2-18,39,26,13,23,18,11,88,63,37,30.28,30.09,29.84,10,10,10,29,11,36,T,3,,336
2013-2-19,40,24,7,22,14,4,92,70,48,30.34,30.20,30.05,10,10,9,29,12,38,0.00,0,,144
2013-2-20,28,24,19,18,13,7,74,65,55,30.06,29.97,29.83,10,9,2,30,14,38,0.00,5,Snow,166
2013-2-21,26,22,18,21,18,15,92,83,74,30.08,29.96,29.86,8,2,0,12,4,14,0.07,8,Fog-Snow,68
2013-2-22,41,30,19,26,19,16,92,66,40,30.08,29.98,29.89,10,7,2,18,6,24,T,5,Snow,265
2013-2-23,50,33,15,25,19,12,88,61,34,29.87,29.78,29.67,10,10,10,15,7,20,0.00,3,,291
2013-2-24,33,29,25,31,28,21,92,81,69,30.21,30.02,29.84,10,4,0,17,8,22,0.11,8,Fog-Snow,13
2013-2-25,42,29,15,23,19,12,88,66,44,30.21,30.08,29.91,10,10,10,15,6,21,0.00,0,,215
2013-2-26,44,31,18,27,21,14,84,62,39,30.19,30.01,29.89,10,10,10,30,9,38,T,3,,330
2013-2-27,44,34,24,24,20,17,81,60,39,30.32,30.27,30.16,10,10,8,20,9,25,0.00,3,,329
2013-2-28,47,32,17,23,18,13,84,56,28,30.34,30.28,30.13,10,10,10,23,9,31,0.00,5,,291